Time;durP1;ratioP1;P1;durP2;ratioP2;P2;SDS_P1;SDS_P2;PMS_P1;PMS_P2;Temp;Humidity;BMP_temperature;BMP_pressure;BME280_temperature;BME280_humidity;BME280_pressure;Samples;Min_cycle;Max_cycle;Signal;HPM_P1;HPM_P2
2023/03/17 00:01:06;;;;;;;4.33;3.57;;;6.90;99.90;;;;;;5071561;28;20090;-75
2023/03/17 00:03:37;;;;;;;4.17;3.67;;;7.00;99.90;;;;;;5081555;28;20107;-75
2023/03/17 00:06:04;;;;;;;4.50;4.10;;;7.00;99.90;;;;;;5058589;28;20065;-75
2023/03/17 00:08:37;;;;;;;6.30;4.10;;;7.00;99.90;;;;;;5078894;28;20151;-75
2023/03/17 00:11:03;;;;;;;4.93;4.10;;;7.00;99.90;;;;;;5063951;28;20028;-75
2023/03/17 00:13:29;;;;;;;4.77;3.97;;;7.00;99.90;;;;;;5087884;28;20048;-75
2023/03/17 00:16:02;;;;;;;6.57;3.73;;;7.00;99.90;;;;;;5081556;28;20710;-75
2023/03/17 00:18:32;;;;;;;6.27;4.20;;;7.10;99.90;;;;;;5084446;28;20040;-75
2023/03/17 00:20:59;;;;;;;5.17;3.90;;;7.00;99.90;;;;;;5077282;28;20132;-77
2023/03/17 00:23:25;;;;;;;8.97;3.93;;;7.10;99.90;;;;;;5084172;28;20392;-75
2023/03/17 00:25:52;;;;;;;5.70;4.10;;;7.00;99.90;;;;;;5062636;28;20095;-75
2023/03/17 00:28:19;;;;;;;4.60;4.13;;;7.00;99.90;;;;;;5082332;28;20040;-75
2023/03/17 00:30:57;;;;;;;7.30;4.13;;;7.00;99.90;;;;;;5080661;28;20044;-75
2023/03/17 00:33:26;;;;;;;4.83;4.17;;;7.00;99.90;;;;;;5082826;28;20131;-75
2023/03/17 00:35:53;;;;;;;6.27;4.27;;;7.00;99.90;;;;;;5082377;28;20523;-75
2023/03/17 00:38:23;;;;;;;5.50;3.67;;;7.00;99.90;;;;;;5078125;28;20036;-75
2023/03/17 00:40:49;;;;;;;4.93;3.73;;;7.00;99.90;;;;;;5076433;28;20040;-75
2023/03/17 00:43:16;;;;;;;5.47;4.07;;;7.00;99.90;;;;;;5073919;28;20044;-76
2023/03/17 00:45:43;;;;;;;8.03;4.17;;;7.00;99.90;;;;;;5070346;28;20052;-75
2023/03/17 00:48:18;;;;;;;4.60;3.83;;;7.00;99.90;;;;;;5074261;28;20041;-76
2023/03/17 00:50:45;;;;;;;4.20;3.80;;;7.00;99.90;;;;;;5084106;28;20072;-75
2023/03/17 00:53:16;;;;;;;4.20;3.57;;;7.00;99.90;;;;;;5083159;28;20043;-76
2023/03/17 00:55:43;;;;;;;4.20;3.70;;;7.00;99.90;;;;;;5092001;27;20177;-75
2023/03/17 00:58:25;;;;;;;4.63;3.70;;;7.00;99.90;;;;;;5087006;27;20067;-75
2023/03/17 01:00:52;;;;;;;5.55;3.90;;;6.90;99.90;;;;;;5118538;27;20595;-75
2023/03/17 01:03:18;;;;;;;4.80;3.73;;;6.90;99.90;;;;;;5121055;27;20086;-75
2023/03/17 01:05:45;;;;;;;6.17;4.07;;;6.90;99.90;;;;;;5080749;27;20044;-75
2023/03/17 01:08:11;;;;;;;6.13;4.50;;;6.90;99.90;;;;;;5108807;27;20084;-76
2023/03/17 01:10:38;;;;;;;6.10;4.20;;;6.90;99.90;;;;;;5115977;27;20043;-75
2023/03/17 01:13:05;;;;;;;5.20;4.10;;;6.90;99.90;;;;;;5119309;27;20103;-75
2023/03/17 01:15:32;;;;;;;4.93;3.93;;;6.90;99.90;;;;;;5108732;28;20838;-75
2023/03/17 01:18:00;;;;;;;7.87;4.10;;;6.90;99.90;;;;;;5098609;27;20071;-75
2023/03/17 01:20:31;;;;;;;6.77;4.47;;;6.90;99.90;;;;;;5124244;27;20051;-75
2023/03/17 01:22:57;;;;;;;4.28;3.88;;;6.90;99.90;;;;;;5098255;27;20047;-75
2023/03/17 01:25:24;;;;;;;7.33;4.03;;;6.90;99.90;;;;;;5101862;27;20046;-76
2023/03/17 01:27:50;;;;;;;8.07;4.17;;;6.90;99.90;;;;;;5101728;27;20061;-75
2023/03/17 01:30:22;;;;;;;7.10;4.40;;;6.90;99.90;;;;;;5106696;28;20490;-75
2023/03/17 01:32:48;;;;;;;6.78;3.70;;;6.90;99.90;;;;;;5123344;27;20092;-75
2023/03/17 01:35:15;;;;;;;5.33;3.93;;;6.90;99.90;;;;;;5103002;27;20035;-75
2023/03/17 01:37:41;;;;;;;5.83;3.93;;;6.90;99.90;;;;;;5107953;27;20478;-75
2023/03/17 01:40:11;;;;;;;8.17;4.10;;;7.00;99.90;;;;;;5129438;27;20038;-75
2023/03/17 01:42:38;;;;;;;5.03;3.80;;;7.00;99.90;;;;;;5125322;27;20048;-75
2023/03/17 01:45:26;;;;;;;6.53;4.20;;;7.00;99.90;;;;;;5088163;28;20073;-75
2023/03/17 01:47:52;;;;;;;5.07;4.00;;;7.00;99.90;;;;;;5091233;27;20080;-75
2023/03/17 01:50:19;;;;;;;6.80;4.17;;;6.90;99.90;;;;;;5099264;27;20043;-75
2023/03/17 01:52:45;;;;;;;4.90;4.10;;;6.90;99.90;;;;;;5063882;27;20670;-75
2023/03/17 01:55:16;;;;;;;6.73;4.30;;;6.90;99.90;;;;;;5100532;27;20074;-75
2023/03/17 01:57:55;;;;;;;5.33;4.20;;;6.90;99.90;;;;;;5114151;27;20516;-75
2023/03/17 02:00:23;;;;;;;4.37;3.97;;;6.90;99.90;;;;;;5119503;27;20107;-75
2023/03/17 02:02:52;;;;;;;6.20;4.40;;;6.90;99.90;;;;;;5105847;27;20036;-75
2023/03/17 02:05:28;;;;;;;5.67;4.30;;;6.90;99.90;;;;;;5113383;27;20461;-75
2023/03/17 02:07:55;;;;;;;5.37;3.97;;;6.90;99.90;;;;;;5103777;28;20032;-75
2023/03/17 02:10:23;;;;;;;4.93;4.23;;;6.90;99.90;;;;;;5116502;28;20054;-75
2023/03/17 02:12:55;;;;;;;6.13;4.40;;;6.90;99.90;;;;;;5096775;27;20042;-75
2023/03/17 02:15:22;;;;;;;;;;;6.90;99.90;;;;;;5127785;27;20447;-76
2023/03/17 02:17:48;;;;;;;7.27;4.80;;;6.90;99.90;;;;;;5123838;27;19930;-74
2023/03/17 02:20:17;;;;;;;5.37;4.03;;;6.80;99.90;;;;;;5116749;27;20048;-75
2023/03/17 02:22:48;;;;;;;5.10;4.57;;;6.90;99.90;;;;;;5111461;27;20043;-75
2023/03/17 02:25:14;;;;;;;7.23;4.60;;;6.90;99.90;;;;;;5117094;28;20046;-75
2023/03/17 02:27:45;;;;;;;6.47;4.50;;;6.80;99.90;;;;;;5094549;27;20621;-75
2023/03/17 02:30:15;;;;;;;6.50;4.80;;;6.80;99.90;;;;;;5099333;28;20099;-75
2023/03/17 02:32:42;;;;;;;7.07;4.83;;;6.80;99.90;;;;;;5100719;28;20048;-75
2023/03/17 02:35:08;;;;;;;6.57;4.83;;;6.80;99.90;;;;;;5113894;27;20035;-75
2023/03/17 02:37:34;;;;;;;6.47;4.73;;;6.80;99.90;;;;;;5098877;28;20298;-75
2023/03/17 02:40:00;;;;;;;6.13;4.57;;;6.70;99.90;;;;;;5062515;28;20118;-75
2023/03/17 02:42:27;;;;;;;7.40;4.80;;;6.70;99.90;;;;;;5118757;28;20061;-75
2023/03/17 02:44:53;;;;;;;5.90;4.27;;;6.70;99.90;;;;;;5096219;28;20529;-75
2023/03/17 02:47:20;;;;;;;5.97;4.60;;;6.70;99.90;;;;;;5081296;28;20043;-75
2023/03/17 02:49:46;;;;;;;6.30;4.80;;;6.70;99.90;;;;;;5118220;28;20043;-75
2023/03/17 02:52:12;;;;;;;5.87;4.60;;;6.70;99.90;;;;;;5107245;28;20581;-75
2023/03/17 02:54:38;;;;;;;5.57;4.43;;;6.70;99.90;;;;;;5116229;28;20039;-75
2023/03/17 02:57:04;;;;;;;5.37;4.57;;;6.70;99.90;;;;;;5096279;28;20056;-75
2023/03/17 02:59:30;;;;;;;7.47;5.17;;;6.70;99.90;;;;;;5103862;28;20048;-75
2023/03/17 03:01:56;;;;;;;5.13;4.50;;;6.70;99.90;;;;;;5107442;28;20083;-75
2023/03/17 03:04:23;;;;;;;6.70;4.60;;;6.70;99.90;;;;;;5115324;28;20578;-75
2023/03/17 03:06:49;;;;;;;7.07;4.90;;;6.70;99.90;;;;;;5094048;28;20039;-75
2023/03/17 03:09:16;;;;;;;4.90;4.40;;;6.70;99.90;;;;;;5122762;28;20043;-75
2023/03/17 03:11:42;;;;;;;5.87;4.97;;;6.70;99.90;;;;;;5098753;28;20409;-76
2023/03/17 03:14:09;;;;;;;7.27;4.43;;;6.70;99.90;;;;;;5117451;28;20036;-76
2023/03/17 03:16:35;;;;;;;5.13;4.63;;;6.70;99.90;;;;;;5118021;28;20044;-75
2023/03/17 03:19:01;;;;;;;7.10;4.83;;;6.70;99.90;;;;;;5084768;28;20123;-74
2023/03/17 03:21:27;;;;;;;5.93;4.90;;;6.70;99.90;;;;;;5129269;28;20076;-75
2023/03/17 03:23:53;;;;;;;7.50;4.53;;;6.70;99.90;;;;;;5092057;28;20040;-75
2023/03/17 03:26:19;;;;;;;5.50;4.40;;;6.70;99.90;;;;;;5123539;27;20052;-75
2023/03/17 03:28:45;;;;;;;6.03;4.70;;;6.70;99.90;;;;;;5132854;27;20047;-75
2023/03/17 03:31:11;;;;;;;7.20;4.73;;;6.70;99.90;;;;;;5128188;27;20052;-75
2023/03/17 03:33:36;;;;;;;8.27;4.67;;;6.70;99.90;;;;;;5105904;27;20470;-75
2023/03/17 03:36:02;;;;;;;5.97;4.40;;;6.70;99.90;;;;;;5103556;27;20066;-75
2023/03/17 03:38:28;;;;;;;6.83;4.87;;;6.70;99.90;;;;;;5105244;27;20087;-75
2023/03/17 03:40:54;;;;;;;5.57;4.67;;;6.70;99.90;;;;;;5107015;28;20071;-75
2023/03/17 03:43:20;;;;;;;4.83;4.33;;;6.70;99.90;;;;;;5102926;27;20039;-75
2023/03/17 03:45:46;;;;;;;5.73;4.50;;;6.70;99.90;;;;;;5107185;27;20044;-75
2023/03/17 03:48:12;;;;;;;7.23;4.87;;;6.80;99.90;;;;;;5116860;27;20058;-76
2023/03/17 03:50:38;;;;;;;5.00;4.43;;;6.70;99.90;;;;;;5090913;27;20059;-75
2023/03/17 03:53:04;;;;;;;6.23;5.37;;;6.80;99.90;;;;;;5098728;27;20078;-74
2023/03/17 03:55:30;;;;;;;7.17;5.07;;;6.80;99.90;;;;;;5112850;27;20075;-75
2023/03/17 03:57:55;;;;;;;6.67;4.90;;;6.70;99.90;;;;;;5127391;27;20074;-75
2023/03/17 04:00:22;;;;;;;5.67;4.57;;;6.70;99.90;;;;;;5136545;27;20130;-75
2023/03/17 04:02:48;;;;;;;9.93;4.70;;;6.70;99.90;;;;;;5102803;27;20387;-75
2023/03/17 04:05:17;;;;;;;6.27;5.03;;;6.70;99.90;;;;;;5074834;27;20027;-75
2023/03/17 04:07:43;;;;;;;7.17;4.93;;;6.70;99.90;;;;;;5123278;27;20039;-75
2023/03/17 04:10:14;;;;;;;7.97;4.93;;;6.70;99.90;;;;;;5113166;27;20124;-75
2023/03/17 04:12:40;;;;;;;4.90;4.20;;;6.70;99.90;;;;;;5101511;27;20067;-75
2023/03/17 04:15:08;;;;;;;6.43;4.93;;;6.70;99.90;;;;;;5120676;27;20067;-74
2023/03/17 04:17:34;;;;;;;6.47;4.93;;;6.70;99.90;;;;;;5100633;27;20495;-74
2023/03/17 04:20:00;;;;;;;5.53;4.67;;;6.70;99.90;;;;;;5099586;27;20043;-75
2023/03/17 04:22:26;;;;;;;5.50;4.80;;;6.70;99.90;;;;;;5085251;27;20047;-73
2023/03/17 04:24:51;;;;;;;6.17;4.70;;;6.70;99.90;;;;;;5107150;27;20039;-76
2023/03/17 04:27:17;;;;;;;5.53;4.30;;;6.70;99.90;;;;;;5109304;27;20043;-75
2023/03/17 04:29:43;;;;;;;7.77;4.77;;;6.70;99.90;;;;;;5106532;27;20176;-75
2023/03/17 04:32:12;;;;;;;6.43;4.83;;;6.70;99.90;;;;;;5105160;27;20108;-75
2023/03/17 04:34:38;;;;;;;6.60;4.73;;;6.70;99.90;;;;;;5085966;27;20043;-76
2023/03/17 04:37:04;;;;;;;6.17;4.83;;;6.70;99.90;;;;;;5085540;28;20067;-75
2023/03/17 04:39:30;;;;;;;6.37;4.93;;;6.70;99.90;;;;;;5121289;27;20024;-75
2023/03/17 04:41:56;;;;;;;5.27;4.77;;;6.70;99.90;;;;;;5129506;27;20039;-76
2023/03/17 04:44:21;;;;;;;5.47;4.80;;;6.70;99.90;;;;;;5093240;27;20048;-75
2023/03/17 04:46:47;;;;;;;6.73;4.93;;;6.70;99.90;;;;;;5123949;27;20077;-75
2023/03/17 04:49:13;;;;;;;6.13;4.63;;;6.70;99.90;;;;;;5131561;27;20039;-76
2023/03/17 04:51:39;;;;;;;6.83;4.70;;;6.70;99.90;;;;;;5104053;27;20054;-75
2023/03/17 04:54:05;;;;;;;6.23;4.63;;;6.70;99.90;;;;;;5117731;27;20043;-75
2023/03/17 04:56:31;;;;;;;5.90;5.07;;;6.70;99.90;;;;;;5084034;28;20101;-75
2023/03/17 04:58:57;;;;;;;6.60;5.27;;;6.70;99.90;;;;;;5100189;28;20078;-75
2023/03/17 05:01:23;;;;;;;5.73;4.80;;;6.70;99.90;;;;;;5108472;27;20067;-75
2023/03/17 05:03:48;;;;;;;6.83;4.43;;;6.70;99.90;;;;;;5124683;27;20160;-75
2023/03/17 05:06:15;;;;;;;5.47;4.87;;;6.60;99.90;;;;;;5106891;27;20933;-75
2023/03/17 05:08:43;;;;;;;5.00;4.47;;;6.60;99.90;;;;;;5103017;27;20536;-75
2023/03/17 05:11:10;;;;;;;6.93;5.10;;;6.60;99.90;;;;;;5101726;27;20039;-75
2023/03/17 05:13:35;;;;;;;6.90;4.87;;;6.60;99.90;;;;;;5100784;28;20066;-76
2023/03/17 05:16:01;;;;;;;5.90;5.00;;;6.60;99.90;;;;;;5086188;27;20123;-75
2023/03/17 05:18:27;;;;;;;6.60;4.70;;;6.60;99.90;;;;;;5084711;27;20087;-75
2023/03/17 05:20:53;;;;;;;4.80;4.30;;;6.60;99.90;;;;;;5108081;27;20046;-75
2023/03/17 05:23:19;;;;;;;5.10;4.60;;;6.60;99.90;;;;;;5074866;27;20048;-75
2023/03/17 05:25:45;;;;;;;6.30;4.57;;;6.60;99.90;;;;;;5107970;27;20047;-75
2023/03/17 05:28:12;;;;;;;6.47;4.70;;;6.60;99.90;;;;;;5121073;27;20039;-75
2023/03/17 05:30:38;;;;;;;5.87;4.60;;;6.60;99.90;;;;;;5091026;27;20095;-75
2023/03/17 05:33:04;;;;;;;6.67;4.60;;;6.60;99.90;;;;;;5091047;27;20047;-75
2023/03/17 05:35:30;;;;;;;5.50;4.50;;;6.60;99.90;;;;;;5101722;27;20050;-75
2023/03/17 05:37:56;;;;;;;5.77;4.57;;;6.60;99.90;;;;;;5085919;27;20039;-76
2023/03/17 05:40:22;;;;;;;5.53;4.47;;;6.60;99.90;;;;;;5123767;27;20046;-76
2023/03/17 05:42:50;;;;;;;5.63;4.20;;;6.60;99.90;;;;;;5089009;28;20044;-75
2023/03/17 05:45:16;;;;;;;5.77;4.80;;;6.60;99.90;;;;;;5078824;28;20063;-75
2023/03/17 05:47:42;;;;;;;6.90;4.70;;;6.60;99.90;;;;;;5098104;28;20593;-75
2023/03/17 05:50:10;;;;;;;10.20;5.20;;;6.60;99.90;;;;;;5099048;27;20133;-75
2023/03/17 05:52:35;;;;;;;6.73;4.67;;;6.50;99.90;;;;;;5117480;27;20040;-75
2023/03/17 05:55:02;;;;;;;6.30;5.03;;;6.50;99.90;;;;;;5080635;27;20040;-75
2023/03/17 05:57:27;;;;;;;6.47;5.27;;;6.50;99.90;;;;;;5112856;27;20051;-75
2023/03/17 05:59:53;;;;;;;5.60;4.53;;;6.50;99.90;;;;;;5127013;27;20415;-75
2023/03/17 06:02:19;;;;;;;6.67;5.00;;;6.50;99.90;;;;;;5082832;27;20465;-76
2023/03/17 06:04:45;;;;;;;6.57;4.70;;;6.50;99.90;;;;;;5108501;27;20035;-75
2023/03/17 06:07:11;;;;;;;6.97;4.60;;;6.50;99.90;;;;;;5086653;28;20074;-75
2023/03/17 06:09:37;;;;;;;7.50;4.70;;;6.50;99.90;;;;;;5117793;27;20093;-76
2023/03/17 06:12:03;;;;;;;7.77;4.90;;;6.50;99.90;;;;;;5103852;27;20458;-74
2023/03/17 06:14:29;;;;;;;5.87;4.80;;;6.60;99.90;;;;;;5116644;27;20039;-76
2023/03/17 06:16:55;;;;;;;6.70;5.27;;;6.60;99.90;;;;;;5101601;27;20047;-75
2023/03/17 06:19:21;;;;;;;5.90;4.50;;;6.70;99.90;;;;;;5084842;27;20035;-76
2023/03/17 06:21:47;;;;;;;5.33;4.20;;;6.70;99.90;;;;;;5074596;28;20061;-75
2023/03/17 06:24:13;;;;;;;7.93;4.53;;;6.70;99.90;;;;;;5096512;28;20063;-75
2023/03/17 06:26:39;;;;;;;7.83;4.27;;;6.80;99.90;;;;;;5101829;27;20218;-76
2023/03/17 06:29:08;;;;;;;6.47;4.20;;;6.80;99.90;;;;;;5116739;27;20076;-77
2023/03/17 06:31:35;;;;;;;8.10;4.83;;;6.90;99.90;;;;;;5122375;27;20051;-77
2023/03/17 06:34:02;;;;;;;4.97;4.03;;;7.00;99.90;;;;;;5099539;28;20103;-77
2023/03/17 06:36:28;;;;;;;4.90;4.40;;;7.00;99.90;;;;;;5095056;28;20051;-77
2023/03/17 06:38:54;;;;;;;6.70;4.60;;;7.10;99.90;;;;;;5080098;28;20036;-78
2023/03/17 06:41:19;;;;;;;5.90;4.20;;;7.20;99.90;;;;;;5119172;28;20051;-79
2023/03/17 06:43:45;;;;;;;6.70;4.33;;;7.20;99.90;;;;;;5080819;28;20056;-78
2023/03/17 06:46:11;;;;;;;5.50;3.70;;;7.30;99.90;;;;;;5088585;28;20039;-78
2023/03/17 06:48:37;;;;;;;5.87;4.43;;;7.30;99.90;;;;;;5109819;28;20047;-78
2023/03/17 06:51:03;;;;;;;9.00;5.73;;;7.40;99.90;;;;;;5087195;28;20039;-78
2023/03/17 06:53:29;;;;;;;6.50;4.20;;;7.50;99.90;;;;;;5121738;28;20044;-78
2023/03/17 06:55:55;;;;;;;6.53;4.17;;;7.60;99.90;;;;;;5101675;28;20069;-78
2023/03/17 06:58:21;;;;;;;6.03;4.07;;;7.60;99.90;;;;;;5103519;28;20058;-79
2023/03/17 07:00:47;;;;;;;10.23;4.67;;;7.70;99.90;;;;;;5114036;28;20031;-79
2023/03/17 07:03:16;;;;;;;4.83;4.33;;;7.80;99.90;;;;;;5089176;27;20483;-79
2023/03/17 07:05:42;;;;;;;3.90;3.50;;;7.80;99.90;;;;;;5105017;27;20070;-79
2023/03/17 07:08:08;;;;;;;5.30;4.13;;;7.80;99.90;;;;;;5127969;27;20040;-79
2023/03/17 07:10:35;;;;;;;4.97;3.47;;;7.90;99.90;;;;;;5132569;27;20481;-78
2023/03/17 07:13:01;;;;;;;5.20;3.60;;;7.90;99.90;;;;;;5108743;27;20043;-79
2023/03/17 07:15:30;;;;;;;1999.90;887.27;;;8.00;99.90;;;;;;5082427;27;20054;-79
2023/03/17 07:17:56;;;;;;;482.27;127.47;;;8.00;99.90;;;;;;5104269;27;20051;-79
2023/03/17 07:20:22;;;;;;;38.13;10.10;;;8.10;99.90;;;;;;5101706;27;20051;-79
2023/03/17 07:22:47;;;;;;;8.30;4.63;;;8.10;99.90;;;;;;5122473;27;20048;-79
2023/03/17 07:25:14;;;;;;;5.37;3.90;;;8.20;99.90;;;;;;5103069;28;20123;-78
2023/03/17 07:27:39;;;;;;;4.43;3.60;;;8.20;99.90;;;;;;5104070;27;20126;-78
2023/03/17 07:30:06;;;;;;;28.40;6.27;;;8.30;99.90;;;;;;5112375;27;20082;-79
2023/03/17 07:32:32;;;;;;;19.87;8.37;;;8.30;99.90;;;;;;5084661;27;20897;-79
2023/03/17 07:34:58;;;;;;;372.47;61.83;;;8.40;99.90;;;;;;5121036;27;20058;-79
2023/03/17 07:37:23;;;;;;;835.40;195.93;;;8.50;99.90;;;;;;5101726;27;20059;-79
2023/03/17 07:39:50;;;;;;;19.50;6.90;;;8.60;99.90;;;;;;5082429;27;20051;-79
2023/03/17 07:42:16;;;;;;;10.70;4.00;;;8.80;99.90;;;;;;5090184;28;20497;-77
2023/03/17 07:44:42;;;;;;;6.03;3.80;;;8.90;99.90;;;;;;5103178;27;20112;-79
2023/03/17 07:47:10;;;;;;;1704.60;444.77;;;9.00;99.90;;;;;;5093264;27;20052;-79
2023/03/17 07:49:36;;;;;;;470.27;71.70;;;9.10;99.90;;;;;;5117682;27;20051;-79
2023/03/17 07:52:02;;;;;;;238.03;34.37;;;9.10;99.90;;;;;;5096968;27;20079;-78
2023/03/17 07:54:28;;;;;;;20.00;6.80;;;9.10;99.90;;;;;;5087118;27;20043;-79
2023/03/17 07:56:54;;;;;;;19.47;6.30;;;9.20;99.90;;;;;;5116806;27;20086;-80
2023/03/17 07:59:20;;;;;;;1999.90;565.57;;;9.30;99.90;;;;;;5067229;27;20552;-80
2023/03/17 08:01:46;;;;;;;1719.67;337.37;;;9.30;99.90;;;;;;5096880;27;20527;-79
2023/03/17 08:04:13;;;;;;;22.27;6.37;;;9.30;99.90;;;;;;5097051;27;20051;-79
2023/03/17 08:06:42;;;;;;;13.00;5.30;;;9.30;99.90;;;;;;5106782;27;20060;-79
2023/03/17 08:09:10;;;;;;;1519.80;434.13;;;9.40;99.90;;;;;;5089110;27;20130;-74
2023/03/17 08:11:36;;;;;;;14.67;4.97;;;9.50;99.90;;;;;;5095831;27;20051;-82
2023/03/17 08:14:02;;;;;;;8.43;4.20;;;9.50;99.90;;;;;;5100863;28;20039;-81
2023/03/17 08:16:29;;;;;;;5.77;3.87;;;9.60;99.90;;;;;;5109050;27;20467;-80
2023/03/17 08:18:56;;;;;;;5.13;3.60;;;9.80;99.90;;;;;;5082609;27;20043;-79
2023/03/17 08:21:22;;;;;;;10.40;4.33;;;9.90;99.90;;;;;;5104567;27;20406;-78
2023/03/17 08:23:47;;;;;;;6.73;4.33;;;10.00;99.90;;;;;;5067146;27;20127;-79
2023/03/17 08:26:13;;;;;;;8.27;4.30;;;10.10;99.90;;;;;;5102636;27;20130;-79
2023/03/17 08:28:39;;;;;;;1779.67;392.30;;;10.10;99.90;;;;;;5102526;27;20035;-78
2023/03/17 08:31:12;;;;;;;7.37;4.27;;;10.20;99.90;;;;;;5066940;28;20069;-77
2023/03/17 08:33:41;;;;;;;7.80;4.23;;;10.20;99.90;;;;;;5102077;27;20093;-77
2023/03/17 08:36:08;;;;;;;4.47;3.83;;;10.20;99.90;;;;;;5067122;27;20059;-78
2023/03/17 08:38:39;;;;;;;8.00;3.80;;;10.20;99.90;;;;;;5084671;28;20051;-78
2023/03/17 08:41:07;;;;;;;5.60;4.10;;;10.20;99.90;;;;;;5101706;27;20067;-78
2023/03/17 08:43:35;;;;;;;5.53;3.97;;;10.30;99.90;;;;;;5085620;27;20077;-78
2023/03/17 08:46:12;;;;;;;9.60;4.17;;;10.40;99.90;;;;;;5085446;27;20046;-78
2023/03/17 08:48:38;;;;;;;12.20;4.27;;;10.40;99.90;;;;;;5067878;27;20111;-78
2023/03/17 08:51:04;;;;;;;6.60;3.77;;;10.50;99.90;;;;;;5103667;27;20036;-78
2023/03/17 08:53:33;;;;;;;4.83;4.20;;;10.50;99.90;;;;;;5084241;27;20054;-77
2023/03/17 08:56:00;;;;;;;7.43;4.50;;;10.60;99.90;;;;;;5085392;27;20772;-78
2023/03/17 08:58:26;;;;;;;5.87;4.33;;;10.70;99.90;;;;;;5082806;27;20066;-77
2023/03/17 09:00:52;;;;;;;11.97;4.33;;;10.80;99.90;;;;;;5102912;27;20047;-78
2023/03/17 09:03:19;;;;;;;13.10;4.60;;;10.90;99.90;;;;;;5104287;27;20134;-78
2023/03/17 09:05:46;;;;;;;12.73;4.57;;;10.90;99.90;;;;;;5102445;27;20066;-78
2023/03/17 09:08:13;;;;;;;8.13;4.17;;;11.00;99.90;;;;;;5104312;27;20473;-78
2023/03/17 09:10:39;;;;;;;13.53;5.07;;;11.10;99.90;;;;;;5084513;27;20619;-78
2023/03/17 09:13:05;;;;;;;962.47;212.30;;;11.20;99.90;;;;;;5069833;27;20103;-78
2023/03/17 09:15:35;;;;;;;8.50;5.60;;;11.40;99.90;;;;;;5083246;27;20086;-79
2023/03/17 09:18:02;;;;;;;7.67;4.47;;;11.50;99.90;;;;;;5102885;27;20735;-78
2023/03/17 09:20:28;;;;;;;7.03;4.33;;;11.60;99.90;;;;;;5086411;27;20050;-78
2023/03/17 09:22:53;;;;;;;7.97;4.37;;;11.60;99.90;;;;;;5068140;27;20036;-78
2023/03/17 09:25:19;;;;;;;13.37;4.57;;;11.70;99.90;;;;;;5085776;27;20061;-78
2023/03/17 09:27:45;;;;;;;6.03;4.30;;;11.80;99.90;;;;;;5081349;28;20433;-78
2023/03/17 09:30:15;;;;;;;7.90;4.43;;;11.90;99.90;;;;;;5084767;28;20058;-78
2023/03/17 09:32:41;;;;;;;5.83;3.77;;;12.10;99.90;;;;;;5082983;27;20331;-78
2023/03/17 09:35:07;;;;;;;4.60;3.80;;;12.10;99.90;;;;;;5103883;27;20053;-78
2023/03/17 09:37:36;;;;;;;8.10;4.43;;;12.10;99.90;;;;;;5080268;28;20048;-78
2023/03/17 09:40:07;;;;;;;7.43;4.83;;;12.10;99.90;;;;;;5081653;28;20104;-79
2023/03/17 09:42:52;;;;;;;11.50;4.63;;;12.20;99.90;;;;;;5067228;28;20039;-78
2023/03/17 09:45:33;;;;;;;8.57;4.50;;;12.30;99.90;;;;;;5101241;27;20092;-79
2023/03/17 09:48:21;;;;;;;9.37;4.67;;;12.50;99.90;;;;;;5084646;27;20058;-77
2023/03/17 09:50:57;;;;;;;6.93;4.63;;;12.60;99.90;;;;;;5085252;27;20071;-78
2023/03/17 09:53:49;;;;;;;6.07;4.17;;;12.70;99.90;;;;;;5099943;27;20177;-79
2023/03/17 09:56:17;;;;;;;64.50;15.15;;;12.90;99.90;;;;;;5083290;28;20055;-79
2023/03/17 09:58:54;;;;;;;11.82;4.90;;;13.00;99.90;;;;;;5083455;27;20077;-78
2023/03/17 10:01:21;;;;;;;23.08;5.75;;;13.10;99.90;;;;;;5082971;28;20043;-78
2023/03/17 10:03:49;;;;;;;8.75;5.05;;;13.10;99.90;;;;;;5085577;28;20047;-78
2023/03/17 10:06:35;;;;;;;58.80;12.00;;;13.10;99.90;;;;;;5100180;27;20051;-79
2023/03/17 10:09:21;;;;;;;8.13;4.57;;;13.20;99.90;;;;;;5085060;28;20085;-79
2023/03/17 10:11:53;;;;;;;18.65;5.47;;;13.30;99.90;;;;;;5082935;28;20452;-78
2023/03/17 10:14:55;;;;;;;7.65;4.38;;;13.40;99.90;;;;;;5066045;28;20044;-79
2023/03/17 10:17:34;;;;;;;6.43;5.05;;;13.30;99.90;;;;;;5014562;28;20641;-80
2023/03/17 10:20:13;;;;;;;12.57;5.38;;;13.50;99.90;;;;;;5091733;27;20060;-78
2023/03/17 10:22:53;;;;;;;7.32;4.80;;;13.50;99.90;;;;;;5084293;27;20679;-78
2023/03/17 10:25:27;;;;;;;13.90;5.18;;;13.60;99.90;;;;;;5103171;28;20126;-78
2023/03/17 10:27:58;;;;;;;7.20;5.00;;;13.70;99.90;;;;;;5082825;27;20128;-78
2023/03/17 10:30:25;;;;;;;7.00;5.00;;;13.80;99.90;;;;;;5087240;28;20040;-79
2023/03/17 10:32:53;;;;;;;7.13;4.80;;;13.90;99.90;;;;;;5067129;28;20616;-78
2023/03/17 10:35:21;;;;;;;44.58;11.05;;;14.00;99.90;;;;;;5065965;27;20059;-78
2023/03/17 10:37:47;;;;;;;10.90;5.13;;;14.10;99.90;;;;;;5102670;28;20082;-78
2023/03/17 10:40:27;;;;;;;9.18;4.97;;;14.10;99.90;;;;;;5079008;28;20092;-77
2023/03/17 10:43:06;;;;;;;7.03;5.30;;;14.20;99.90;;;;;;5102138;28;20043;-78
2023/03/17 10:45:45;;;;;;;23.52;6.53;;;14.30;99.90;;;;;;5100370;28;20031;-79
2023/03/17 10:48:17;;;;;;;14.60;5.55;;;14.40;99.90;;;;;;5065867;28;20044;-78
2023/03/17 10:50:45;;;;;;;112.50;18.85;;;14.40;99.90;;;;;;5067407;28;20043;-87
2023/03/17 10:53:28;;;;;;;11.98;5.43;;;14.50;99.90;;;;;;5082253;28;20047;-78
2023/03/17 10:56:08;;;;;;;8.20;5.15;;;14.60;99.90;;;;;;5101619;28;20031;-79
2023/03/17 10:58:48;;;;;;;9.02;6.10;;;14.60;99.90;;;;;;5101401;28;20036;-79
2023/03/17 11:01:42;;;;;;;10.05;5.63;;;14.70;99.90;;;;;;5049103;28;20043;-79
2023/03/17 11:04:29;;;;;;;7.15;4.80;;;14.60;99.90;;;;;;5101533;28;20077;-79
2023/03/17 11:06:57;;;;;;;9.20;5.20;;;14.40;99.90;;;;;;5099621;28;20743;-79
2023/03/17 11:09:25;;;;;;;8.88;5.13;;;14.30;99.90;;;;;;5082364;28;20051;-79
2023/03/17 11:12:04;;;;;;;7.47;5.20;;;14.20;99.90;;;;;;5101215;28;20051;-78
2023/03/17 11:14:29;;;;;;;7.70;5.38;;;14.20;99.90;;;;;;5083369;28;20096;-78
2023/03/17 11:16:58;;;;;;;7.47;5.53;;;14.30;99.90;;;;;;5081771;28;20665;-78
2023/03/17 11:19:40;;;;;;;8.55;5.38;;;14.30;99.90;;;;;;5099742;28;20079;-78
2023/03/17 11:22:06;;;;;;;7.60;5.82;;;14.40;99.90;;;;;;5084147;28;20355;-79
2023/03/17 11:24:40;;;;;;;8.00;5.60;;;14.50;99.90;;;;;;5082905;28;20063;-78
2023/03/17 11:27:21;;;;;;;12.80;5.93;;;14.60;99.90;;;;;;5064568;28;20039;-79
2023/03/17 11:29:59;;;;;;;11.15;6.07;;;14.70;99.90;;;;;;5102243;28;20124;-78
2023/03/17 11:32:51;;;;;;;6.22;5.15;;;14.80;99.90;;;;;;5080428;28;20062;-79
2023/03/17 11:35:55;;;;;;;7.45;5.60;;;15.00;99.90;;;;;;5079514;28;20524;-79
2023/03/17 11:38:43;;;;;;;12.63;5.50;;;15.10;99.90;;;;;;5085137;28;20103;-79
2023/03/17 11:41:50;;;;;;;9.70;6.00;;;15.30;99.90;;;;;;5099988;28;20573;-80
2023/03/17 11:44:41;;;;;;;7.25;5.50;;;15.50;99.90;;;;;;5054335;28;20059;-78
2023/03/17 11:47:11;;;;;;;13.10;6.15;;;15.60;99.90;;;;;;5100576;28;20142;-79
2023/03/17 11:49:38;;;;;;;10.77;6.22;;;15.70;99.90;;;;;;5084184;28;20054;-78
2023/03/17 11:52:09;;;;;;;9.45;6.10;;;15.80;99.90;;;;;;5103079;27;21327;-78
2023/03/17 11:54:44;;;;;;;7.80;5.70;;;15.90;99.90;;;;;;5104167;27;20051;-80
2023/03/17 11:57:18;;;;;;;9.68;5.63;;;16.00;99.90;;;;;;5103308;27;20059;-78
2023/03/17 11:59:53;;;;;;;9.45;6.15;;;16.00;99.90;;;;;;5088104;27;20073;-79
2023/03/17 12:02:37;;;;;;;8.80;5.95;;;16.10;99.90;;;;;;5084100;28;20112;-79
2023/03/17 12:05:17;;;;;;;14.68;7.20;;;16.20;99.90;;;;;;5104755;27;20051;-78
2023/03/17 12:07:58;;;;;;;10.45;6.80;;;16.20;99.90;;;;;;5104424;27;20050;-78
2023/03/17 12:10:40;;;;;;;9.50;6.15;;;16.30;99.90;;;;;;5083995;27;20044;-79
2023/03/17 12:13:20;;;;;;;312.02;44.65;;;16.40;99.90;;;;;;5105251;27;20051;-79
2023/03/17 12:15:51;;;;;;;479.58;53.67;;;16.40;99.90;;;;;;5102643;27;20137;-79
2023/03/17 12:18:29;;;;;;;9.93;6.93;;;16.40;99.90;;;;;;5085262;27;20706;-79
2023/03/17 12:21:19;;;;;;;14.43;9.25;;;16.50;99.90;;;;;;5100611;27;20122;-78
2023/03/17 12:23:51;;;;;;;10.50;5.93;;;16.30;99.90;;;;;;5116034;27;20498;-80
2023/03/17 12:26:46;;;;;;;8.27;6.13;;;16.10;99.90;;;;;;5123571;27;20053;-79
2023/03/17 12:29:32;;;;;;;7.53;5.88;;;16.10;99.90;;;;;;5118596;27;20168;-77
2023/03/17 12:32:25;;;;;;;8.30;6.05;;;16.20;99.90;;;;;;5096562;27;20122;-79
2023/03/17 12:34:56;;;;;;;9.35;5.80;;;16.20;99.90;;;;;;5089426;27;20051;-79
2023/03/17 12:37:23;;;;;;;8.30;5.65;;;16.30;99.90;;;;;;5098468;27;20046;-79
2023/03/17 12:39:59;;;;;;;8.13;5.78;;;16.30;99.90;;;;;;5103363;28;20084;-79
2023/03/17 12:42:37;;;;;;;8.88;6.38;;;16.40;99.90;;;;;;5096603;27;20052;-79
2023/03/17 12:45:25;;;;;;;7.20;5.57;;;16.40;99.90;;;;;;5105152;28;20072;-79
2023/03/17 12:48:13;;;;;;;8.70;5.60;;;16.40;99.90;;;;;;5122967;27;20058;-79
2023/03/17 12:51:10;;;;;;;266.63;27.33;;;16.40;99.90;;;;;;5102979;27;20055;-79
2023/03/17 12:53:40;;;;;;;1984.18;383.33;;;16.30;99.90;;;;;;5115886;27;20126;-79
2023/03/17 12:56:17;;;;;;;1025.85;115.10;;;16.40;99.90;;;;;;5117306;27;20123;-79
2023/03/17 12:58:47;;;;;;;16.17;6.60;;;16.40;99.90;;;;;;5113817;27;20132;-79
2023/03/17 13:01:32;;;;;;;6.65;5.60;;;16.40;99.90;;;;;;5079481;27;20566;-79
2023/03/17 13:04:25;;;;;;;7.95;5.40;;;16.40;99.90;;;;;;5081761;27;20103;-79